This is the latest recevied weather packets stored in our database for station/object F5TND-3. If no packets are shown the sender has not sent any weather packets the latest 10 day(s).
| Time | Temp. | Humidity | Pressure | Rain* | Wind** | Luminosity | Snow |
|---|---|---|---|---|---|---|---|
| 1787569792 | 29.44° C | 40% | 1006.1 hPa | - | - | - | - |
| 1787568592 | 32.22° C | 34% | 1006.4 hPa | - | - | - | - |
| 1787567392 | 31.67° C | 35% | 1006.6 hPa | - | - | - | - |
| 1787566192 | 30° C | 37% | 1006.8 hPa | - | - | - | - |
| 1787564992 | 29.44° C | 38% | 1007.1 hPa | - | - | - | - |
| 1787563792 | 27.78° C | 39% | 1007 hPa | - | - | - | - |
| 1787562592 | 27.22° C | 41% | 1007 hPa | - | - | - | - |
| 1787561392 | 27.22° C | 40% | 1007.1 hPa | - | - | - | - |
| 1787560199 | 27.22° C | 40% | 1007.3 hPa | - | - | - | - |
| 1787558991 | 28.89° C | 34% | 1007.7 hPa | - | - | - | - |
| 1787557791 | 27.78° C | 36% | 1008.2 hPa | - | - | - | - |
| 1787555392 | 26.67° C | 35% | 1008.3 hPa | - | - | - | - |
| 1787554191 | 25.56° C | 36% | 1008.2 hPa | - | - | - | - |
| 1787552991 | 24.44° C | 37% | 1007.9 hPa | - | - | - | - |
| 1787551791 | 22.78° C | 41% | 1007.8 hPa | - | - | - | - |
| 1787550591 | 21.11° C | 45% | 1007.6 hPa | - | - | - | - |
| 1787549391 | 18.33° C | 52% | 1007.8 hPa | - | - | - | - |
| 1787549305 | 18.33° C | 52% | 1007.8 hPa | - | - | - | - |
| 1787548120 | 18.33° C | 53% | 1007.8 hPa | - | - | - | - |
| 1787546920 | 18.33° C | 53% | 1007.9 hPa | - | - | - | - |
| 1787544508 | 18.33° C | 54% | 1008.3 hPa | - | - | - | - |
| 1787543308 | 18.89° C | 52% | 1008.3 hPa | - | - | - | - |
| 1787542108 | 18.89° C | 51% | 1008.6 hPa | - | - | - | - |
| 1787540908 | 18.89° C | 54% | 1008.8 hPa | - | - | - | - |
| 1787539719 | 18.89° C | 53% | 1009 hPa | - | - | - | - |
* Rain since midnight (hover to see other rain measurements)
** Current wind speed in m/s (hover to see current wind gust speed)